Terminal Aerodrome Forecast
Issued by NWS

Home | Current Version | Previous Version | Text Only | Print | Product List | Glossary On
Versions: 1 2 3 4 5 6 7 8 9 10 11 12
000
FTUS42 TJSJ 230530
TAFJPS
TAF
TJPS 230530Z 2306/2406 13007KT P6SM VCSH SCT020 BKN050
     FM231400 13012KT P6SM VCSH SCT020 BKN050
      AMD NOT SKED=

USA.gov is the U.S. government's official web portal to all federal, state and local government web resources and services.